createdAt,value
2016-11-13T00:00:30.712Z,0
2016-11-13T00:01:44.412Z,0
2016-11-13T00:02:58.160Z,0
2016-11-13T00:04:11.940Z,0
2016-11-13T00:05:25.683Z,0
2016-11-13T00:06:39.391Z,0
2016-11-13T00:07:51.858Z,0
2016-11-13T00:09:05.552Z,0
2016-11-13T00:10:19.273Z,0
2016-11-13T00:11:31.706Z,0
2016-11-13T00:12:45.423Z,0
2016-11-13T00:13:59.145Z,0
2016-11-13T00:15:12.857Z,0
2016-11-13T00:16:25.294Z,0
2016-11-13T00:17:39.142Z,0
2016-11-13T00:18:52.889Z,0
2016-11-13T00:20:05.351Z,0
2016-11-13T00:21:19.056Z,0
2016-11-13T00:22:31.717Z,0
2016-11-13T00:23:44.204Z,0
2016-11-13T00:24:57.966Z,0
2016-11-13T00:26:10.409Z,0
2016-11-13T00:27:24.217Z,0
2016-11-13T00:28:36.651Z,0
2016-11-13T00:29:50.402Z,0
2016-11-13T00:31:02.891Z,0
2016-11-13T00:32:16.647Z,0
2016-11-13T00:33:30.361Z,0
2016-11-13T00:34:41.564Z,0
2016-11-13T00:35:54.043Z,0
2016-11-13T00:37:07.775Z,0
2016-11-13T00:38:21.487Z,0
2016-11-13T00:39:31.343Z,0
2016-11-13T00:40:45.093Z,0
2016-11-13T00:41:57.525Z,0
2016-11-13T00:43:11.455Z,0
2016-11-13T00:44:25.161Z,0
2016-11-13T00:45:38.873Z,0
2016-11-13T00:46:51.308Z,0
2016-11-13T00:48:05.259Z,0
2016-11-13T00:49:18.969Z,0
2016-11-13T00:50:32.671Z,0
2016-11-13T00:51:46.411Z,0
2016-11-13T00:53:00.113Z,0
2016-11-13T00:54:13.873Z,0
2016-11-13T00:55:26.360Z,0
2016-11-13T00:56:40.157Z,0
2016-11-13T00:57:52.620Z,0
2016-11-13T00:59:06.339Z,0
2016-11-13T01:00:20.061Z,0
2016-11-13T01:01:33.775Z,0
2016-11-13T01:02:47.503Z,0
2016-11-13T01:04:01.215Z,0
2016-11-13T01:05:14.943Z,0
2016-11-13T01:06:27.378Z,0
2016-11-13T01:07:39.859Z,0
2016-11-13T01:08:53.561Z,0
2016-11-13T01:10:07.491Z,0
2016-11-13T01:11:19.913Z,0
2016-11-13T01:12:33.609Z,0
2016-11-13T01:13:46.027Z,0
2016-11-13T01:14:59.794Z,0
2016-11-13T01:16:13.521Z,0
2016-11-13T01:17:25.983Z,0
2016-11-13T01:18:38.513Z,0
2016-11-13T01:19:52.232Z,0
2016-11-13T01:21:05.934Z,0
2016-11-13T01:22:19.655Z,0
2016-11-13T01:23:32.099Z,0
2016-11-13T01:24:44.609Z,0
2016-11-13T01:25:58.559Z,0
2016-11-13T01:27:10.975Z,0
2016-11-13T01:28:24.735Z,0
2016-11-13T01:29:37.224Z,0
2016-11-13T01:30:50.957Z,0
2016-11-13T01:32:03.377Z,0
2016-11-13T01:33:17.460Z,0
2016-11-13T01:34:31.173Z,0
2016-11-13T01:35:42.322Z,0
2016-11-13T01:36:53.461Z,0
2016-11-13T01:38:07.193Z,0
2016-11-13T01:39:20.916Z,0
2016-11-13T01:40:32.053Z,0
2016-11-13T01:41:45.782Z,0
2016-11-13T01:42:57.155Z,0
2016-11-13T01:44:10.857Z,0
2016-11-13T01:45:24.555Z,0
2016-11-13T01:46:38.271Z,0
2016-11-13T01:47:52.010Z,0
2016-11-13T01:49:05.957Z,0
2016-11-13T01:50:19.707Z,0
2016-11-13T01:51:32.129Z,0
2016-11-13T01:52:44.773Z,0
2016-11-13T01:53:58.783Z,0
2016-11-13T01:55:12.487Z,0
2016-11-13T01:56:26.196Z,0
2016-11-13T01:57:38.709Z,0
2016-11-13T01:58:52.399Z,0
2016-11-13T02:00:04.822Z,0
2016-11-13T02:01:18.567Z,0
2016-11-13T02:02:32.293Z,0
2016-11-13T02:03:46.094Z,0
2016-11-13T02:04:59.814Z,0
2016-11-13T02:06:13.512Z,0
2016-11-13T02:07:27.205Z,0
2016-11-13T02:08:39.611Z,0
2016-11-13T02:09:53.310Z,0
2016-11-13T02:11:07.142Z,0
2016-11-13T02:12:18.293Z,0
2016-11-13T02:13:32.274Z,0
2016-11-13T02:14:45.998Z,0
2016-11-13T02:15:59.710Z,0
2016-11-13T02:17:13.441Z,0
2016-11-13T02:18:27.143Z,0
2016-11-13T02:19:40.849Z,0
2016-11-13T02:20:53.259Z,0
2016-11-13T02:22:05.736Z,0
2016-11-13T02:23:19.450Z,0
2016-11-13T02:24:33.282Z,0
2016-11-13T02:25:45.729Z,0
2016-11-13T02:26:59.425Z,0
2016-11-13T02:28:11.848Z,0
2016-11-13T02:29:24.309Z,0
2016-11-13T02:30:38.100Z,0
2016-11-13T02:31:52.040Z,0
2016-11-13T02:33:05.736Z,0
2016-11-13T02:34:18.148Z,0
2016-11-13T02:35:30.795Z,0
2016-11-13T02:36:44.524Z,0
2016-11-13T02:37:58.256Z,0
2016-11-13T02:39:10.887Z,0
2016-11-13T02:40:24.584Z,0
2016-11-13T02:41:38.278Z,0
2016-11-13T02:42:52.437Z,0
2016-11-13T02:44:04.849Z,0
2016-11-13T02:45:18.561Z,0
2016-11-13T02:46:32.317Z,0
2016-11-13T02:47:46.030Z,0
2016-11-13T02:48:57.166Z,0
2016-11-13T02:50:08.327Z,0
2016-11-13T02:51:22.033Z,0
2016-11-13T02:52:35.800Z,0
2016-11-13T02:53:48.206Z,0
2016-11-13T02:55:01.918Z,0
2016-11-13T02:56:15.633Z,0
2016-11-13T02:57:26.767Z,0
2016-11-13T02:58:40.446Z,0
2016-11-13T02:59:54.139Z,0
2016-11-13T03:01:07.872Z,0
2016-11-13T03:02:21.809Z,0
2016-11-13T03:03:35.519Z,0
2016-11-13T03:04:47.937Z,0
2016-11-13T03:06:00.535Z,0
2016-11-13T03:07:13.054Z,0
2016-11-13T03:08:26.763Z,0
2016-11-13T03:09:39.182Z,0
2016-11-13T03:10:52.903Z,0
2016-11-13T03:12:05.375Z,0
2016-11-13T03:13:19.101Z,0
2016-11-13T03:14:32.821Z,0
2016-11-13T03:15:45.243Z,0
2016-11-13T03:16:58.939Z,0
2016-11-13T03:18:11.409Z,0
2016-11-13T03:19:25.118Z,0
2016-11-13T03:20:37.549Z,0
2016-11-13T03:21:50.196Z,0
2016-11-13T03:23:03.899Z,0
2016-11-13T03:24:17.609Z,0
2016-11-13T03:25:31.382Z,0
2016-11-13T03:26:43.797Z,0
2016-11-13T03:27:56.238Z,0
2016-11-13T03:29:10.178Z,0
2016-11-13T03:30:23.892Z,0
2016-11-13T03:31:37.609Z,0
2016-11-13T03:32:51.325Z,0
2016-11-13T03:34:03.824Z,0
2016-11-13T03:35:17.525Z,0
2016-11-13T03:36:31.464Z,0
2016-11-13T03:37:45.179Z,0
2016-11-13T03:38:58.913Z,0
2016-11-13T03:40:12.743Z,0
2016-11-13T03:41:26.478Z,0
2016-11-13T03:42:38.920Z,0
2016-11-13T03:43:52.641Z,0
2016-11-13T03:45:05.064Z,0
2016-11-13T03:46:18.759Z,0
2016-11-13T03:47:31.192Z,0
2016-11-13T03:48:45.144Z,0
2016-11-13T03:49:58.848Z,0
2016-11-13T03:51:12.580Z,0
2016-11-13T03:52:26.300Z,0
2016-11-13T03:53:40.008Z,0
2016-11-13T03:54:53.714Z,0
2016-11-13T03:56:07.429Z,0
2016-11-13T03:57:19.901Z,0
2016-11-13T03:58:33.627Z,0
2016-11-13T03:59:46.075Z,0
2016-11-13T04:00:58.518Z,0
2016-11-13T04:02:10.935Z,0
2016-11-13T04:03:24.635Z,0
2016-11-13T04:04:38.345Z,0
2016-11-13T04:05:52.046Z,0
2016-11-13T04:07:05.764Z,0
2016-11-13T04:08:18.215Z,0
2016-11-13T04:09:30.654Z,0
2016-11-13T04:10:43.076Z,0
2016-11-13T04:11:56.830Z,0
2016-11-13T04:13:09.307Z,0
2016-11-13T04:14:21.720Z,0
2016-11-13T04:15:35.432Z,0
2016-11-13T04:16:49.167Z,0
2016-11-13T04:18:01.582Z,0
2016-11-13T04:19:15.275Z,0
2016-11-13T04:20:29.060Z,0
2016-11-13T04:21:41.518Z,0
2016-11-13T04:22:55.220Z,0
2016-11-13T04:24:08.921Z,0
2016-11-13T04:25:20.036Z,0
2016-11-13T04:26:33.755Z,0
2016-11-13T04:27:47.461Z,0
2016-11-13T04:29:01.163Z,0
2016-11-13T04:30:14.856Z,0
2016-11-13T04:31:28.555Z,0
2016-11-13T04:32:42.260Z,0
2016-11-13T04:33:56.023Z,0
2016-11-13T04:35:09.708Z,0
2016-11-13T04:36:23.434Z,0
2016-11-13T04:37:37.313Z,0
2016-11-13T04:38:51.016Z,0
2016-11-13T04:40:04.734Z,0
2016-11-13T04:41:18.509Z,0
2016-11-13T04:42:32.218Z,0
2016-11-13T04:43:45.931Z,0
2016-11-13T04:44:59.643Z,0
2016-11-13T04:46:13.364Z,0
2016-11-13T04:47:27.076Z,0
2016-11-13T04:48:40.786Z,0
2016-11-13T04:49:54.482Z,0
2016-11-13T04:51:08.420Z,0
2016-11-13T04:52:20.849Z,0
2016-11-13T04:53:34.549Z,0
2016-11-13T04:54:48.346Z,0
2016-11-13T04:56:02.141Z,0
2016-11-13T04:57:15.864Z,0
2016-11-13T04:58:29.557Z,0
2016-11-13T04:59:43.272Z,0
2016-11-13T05:00:55.751Z,0
2016-11-13T05:02:09.484Z,0
2016-11-13T05:03:21.918Z,0
2016-11-13T05:04:34.341Z,0
2016-11-13T05:05:48.092Z,0
2016-11-13T05:07:31.586Z,0
2016-11-13T05:08:43.998Z,0
2016-11-13T05:09:56.425Z,0
2016-11-13T05:11:08.889Z,0
2016-11-13T05:12:22.619Z,0
2016-11-13T05:13:35.029Z,0
2016-11-13T05:14:48.754Z,0
2016-11-13T05:15:59.877Z,0
2016-11-13T05:17:13.610Z,0
2016-11-13T05:18:27.342Z,0
2016-11-13T05:19:41.125Z,0
2016-11-13T05:20:54.837Z,0
2016-11-13T05:22:08.539Z,0
2016-11-13T05:23:22.271Z,0
2016-11-13T05:24:35.963Z,0
2016-11-13T05:25:49.659Z,0
2016-11-13T05:27:02.060Z,0
2016-11-13T05:28:14.485Z,0
2016-11-13T05:29:26.930Z,0
2016-11-13T05:30:40.853Z,0
2016-11-13T05:31:54.553Z,0
2016-11-13T05:33:08.286Z,0
2016-11-13T05:34:22.001Z,0
2016-11-13T05:35:35.696Z,0
2016-11-13T05:36:49.395Z,0
2016-11-13T05:38:01.838Z,0
2016-11-13T05:39:13.187Z,0
2016-11-13T05:40:26.928Z,0
2016-11-13T05:41:40.613Z,0
2016-11-13T05:42:54.349Z,0
2016-11-13T05:44:06.760Z,0
2016-11-13T05:45:20.550Z,0
2016-11-13T05:46:34.274Z,0
2016-11-13T05:47:46.723Z,0
2016-11-13T05:49:00.444Z,0
2016-11-13T05:50:14.143Z,0
2016-11-13T05:51:28.073Z,0
2016-11-13T05:52:41.797Z,0
2016-11-13T05:53:55.510Z,0
2016-11-13T05:55:09.246Z,0
2016-11-13T05:56:22.978Z,0
2016-11-13T05:57:36.701Z,0
2016-11-13T05:58:50.401Z,0
2016-11-13T06:00:04.399Z,0
2016-11-13T06:01:16.892Z,0
2016-11-13T06:02:29.337Z,0
2016-11-13T06:03:43.078Z,0
2016-11-13T06:04:56.789Z,0
2016-11-13T06:06:10.489Z,0
2016-11-13T06:07:24.189Z,0
2016-11-13T06:08:37.887Z,0
2016-11-13T06:09:51.596Z,0
2016-11-13T06:11:05.311Z,0
2016-11-13T06:12:16.434Z,0
2016-11-13T06:13:30.134Z,0
2016-11-13T06:14:41.291Z,0
2016-11-13T06:15:53.708Z,0
2016-11-13T06:17:07.404Z,5
2016-11-13T06:18:21.125Z,5
2016-11-13T06:19:34.943Z,5
2016-11-13T06:20:48.658Z,5
2016-11-13T06:22:02.399Z,5
2016-11-13T06:23:16.115Z,10
2016-11-13T06:24:29.817Z,10
2016-11-13T06:25:42.222Z,10
2016-11-13T06:26:55.917Z,10
2016-11-13T06:28:08.469Z,15
2016-11-13T06:29:22.181Z,15
2016-11-13T06:30:35.880Z,15
2016-11-13T06:31:48.294Z,15
2016-11-13T06:33:02.118Z,20
2016-11-13T06:34:15.820Z,20
2016-11-13T06:35:28.252Z,20
2016-11-13T06:36:40.949Z,25
2016-11-13T06:37:54.668Z,25
2016-11-13T06:39:08.572Z,25
2016-11-13T06:40:20.991Z,30
2016-11-13T06:41:33.420Z,30
2016-11-13T06:42:47.122Z,30
2016-11-13T06:43:59.545Z,35
2016-11-13T06:45:13.269Z,35
2016-11-13T06:46:26.976Z,40
2016-11-13T06:47:40.693Z,40
2016-11-13T06:48:53.101Z,40
2016-11-13T06:50:06.861Z,40
2016-11-13T06:51:19.283Z,40
2016-11-13T06:52:33.020Z,45
2016-11-13T06:53:45.442Z,50
2016-11-13T06:54:59.151Z,50
2016-11-13T06:56:11.573Z,55
2016-11-13T06:57:24.021Z,55
2016-11-13T06:58:37.720Z,60
2016-11-13T06:59:51.450Z,65
2016-11-13T07:01:05.251Z,65
2016-11-13T07:02:18.949Z,75
2016-11-13T07:03:32.648Z,80
2016-11-13T07:04:46.351Z,85
2016-11-13T07:06:00.080Z,90
2016-11-13T07:07:14.022Z,95
2016-11-13T07:08:27.738Z,100
2016-11-13T07:09:40.140Z,105
2016-11-13T07:10:53.870Z,110
2016-11-13T07:12:07.573Z,120
2016-11-13T07:13:21.299Z,125
2016-11-13T07:14:35.168Z,135
2016-11-13T07:15:47.606Z,140
2016-11-13T07:17:01.516Z,150
2016-11-13T07:18:13.927Z,155
2016-11-13T07:19:27.636Z,160
2016-11-13T07:20:41.353Z,170
2016-11-13T07:21:54.049Z,175
2016-11-13T07:23:07.826Z,180
2016-11-13T07:24:20.243Z,180
2016-11-13T07:25:33.944Z,190
2016-11-13T07:26:46.361Z,195
2016-11-13T07:28:00.068Z,200
2016-11-13T07:29:13.921Z,210
2016-11-13T07:30:27.653Z,215
2016-11-13T07:31:41.360Z,225
2016-11-13T07:32:55.064Z,240
2016-11-13T07:34:08.764Z,255
2016-11-13T07:35:21.197Z,275
2016-11-13T07:36:33.649Z,265
2016-11-13T07:37:47.349Z,255
2016-11-13T07:39:01.057Z,245
2016-11-13T07:40:14.765Z,240
2016-11-13T07:41:27.186Z,250
2016-11-13T07:42:40.888Z,250
2016-11-13T07:43:54.616Z,255
2016-11-13T07:45:08.394Z,255
2016-11-13T07:46:22.102Z,260
2016-11-13T07:47:34.574Z,270
2016-11-13T07:48:48.488Z,280
2016-11-13T07:50:02.187Z,305
2016-11-13T07:51:15.887Z,350
2016-11-13T07:52:29.631Z,365
2016-11-13T07:53:43.335Z,430
2016-11-13T07:54:54.490Z,445
2016-11-13T07:56:08.190Z,400
2016-11-13T07:57:20.636Z,395
2016-11-13T07:58:34.351Z,400
2016-11-13T07:59:46.771Z,380
2016-11-13T08:01:00.473Z,390
2016-11-13T08:02:14.168Z,430
2016-11-13T08:03:27.890Z,455
2016-11-13T08:04:40.361Z,480
2016-11-13T08:05:51.617Z,575
2016-11-13T08:07:05.331Z,610
2016-11-13T08:08:17.792Z,715
2016-11-13T08:09:31.496Z,725
2016-11-13T08:10:44.035Z,845
2016-11-13T08:11:57.737Z,890
2016-11-13T08:13:11.503Z,895
2016-11-13T08:14:23.948Z,930
2016-11-13T08:15:36.393Z,920
2016-11-13T08:16:47.538Z,925
2016-11-13T08:18:00.105Z,915
2016-11-13T08:19:13.817Z,965
2016-11-13T08:20:26.237Z,1035
2016-11-13T08:21:38.918Z,865
2016-11-13T08:22:52.695Z,955
2016-11-13T08:24:05.152Z,955
2016-11-13T08:25:17.593Z,955
2016-11-13T08:26:31.337Z,985
2016-11-13T08:27:45.075Z,970
2016-11-13T08:28:57.513Z,820
2016-11-13T08:30:11.225Z,700
2016-11-13T08:31:24.944Z,795
2016-11-13T08:32:38.652Z,680
2016-11-13T08:33:51.192Z,815
2016-11-13T08:35:03.676Z,765
2016-11-13T08:36:17.454Z,615
2016-11-13T08:37:31.182Z,540
2016-11-13T08:38:43.604Z,505
2016-11-13T08:39:57.400Z,500
2016-11-13T08:41:09.956Z,485
2016-11-13T08:42:23.683Z,475
2016-11-13T08:43:37.404Z,465
2016-11-13T08:44:49.897Z,465
2016-11-13T08:46:03.635Z,455
2016-11-13T08:47:16.067Z,450
2016-11-13T08:48:29.987Z,460
2016-11-13T08:49:43.703Z,470
2016-11-13T08:50:56.148Z,470
2016-11-13T08:52:07.315Z,465
2016-11-13T08:53:21.044Z,480
2016-11-13T08:54:34.754Z,485
2016-11-13T08:55:47.174Z,495
2016-11-13T08:56:59.628Z,510
2016-11-13T08:58:13.334Z,510
2016-11-13T08:59:25.794Z,515
2016-11-13T09:00:39.531Z,515
2016-11-13T09:01:53.306Z,530
2016-11-13T09:03:07.043Z,540
2016-11-13T09:04:20.966Z,560
2016-11-13T09:05:34.682Z,570
2016-11-13T09:06:48.392Z,565
2016-11-13T09:08:02.122Z,570
2016-11-13T09:09:15.850Z,580
2016-11-13T09:10:29.559Z,590
2016-11-13T09:11:41.975Z,615
2016-11-13T09:12:55.783Z,625
2016-11-13T09:14:09.482Z,640
2016-11-13T09:15:23.251Z,645
2016-11-13T09:16:37.026Z,650
2016-11-13T09:17:50.745Z,645
2016-11-13T09:19:04.486Z,645
2016-11-13T09:20:18.317Z,640
2016-11-13T09:21:29.466Z,640
2016-11-13T09:22:43.356Z,635
2016-11-13T09:23:57.087Z,640
2016-11-13T09:25:10.809Z,645
2016-11-13T09:26:24.531Z,650
2016-11-13T09:27:36.985Z,660
2016-11-13T09:28:50.778Z,665
2016-11-13T09:30:04.513Z,670
2016-11-13T09:31:18.224Z,690
2016-11-13T09:32:30.677Z,710
2016-11-13T09:33:43.114Z,740
2016-11-13T09:34:56.832Z,750
2016-11-13T09:36:10.546Z,760
2016-11-13T09:37:24.316Z,760
2016-11-13T09:38:36.744Z,755
2016-11-13T09:39:50.561Z,750
2016-11-13T09:41:04.322Z,745
2016-11-13T09:42:16.766Z,735
2016-11-13T09:43:30.555Z,725
2016-11-13T09:44:44.291Z,720
2016-11-13T09:45:58.033Z,715
2016-11-13T09:47:11.770Z,720
2016-11-13T09:48:24.267Z,740
2016-11-13T09:49:36.735Z,755
2016-11-13T09:50:50.523Z,770
2016-11-13T09:52:04.304Z,770
2016-11-13T09:53:18.027Z,775
2016-11-13T09:54:30.466Z,790
2016-11-13T09:55:44.187Z,805
2016-11-13T09:56:58.330Z,835
2016-11-13T09:58:10.788Z,875
2016-11-13T09:59:24.566Z,890
2016-11-13T10:00:35.729Z,905
2016-11-13T10:01:48.178Z,895
2016-11-13T10:03:00.714Z,890
2016-11-13T10:04:14.538Z,880
2016-11-13T10:05:28.268Z,895
2016-11-13T10:06:40.752Z,895
2016-11-13T10:07:54.548Z,885
2016-11-13T10:09:07.107Z,860
2016-11-13T10:10:19.552Z,875
2016-11-13T10:11:33.290Z,890
2016-11-13T10:12:47.037Z,905
2016-11-13T10:13:59.514Z,930
2016-11-13T10:15:13.258Z,945
2016-11-13T10:16:25.692Z,980
2016-11-13T10:17:39.549Z,1010
2016-11-13T10:18:53.333Z,1045
2016-11-13T10:20:07.047Z,1050
2016-11-13T10:21:20.790Z,1085
2016-11-13T10:22:34.541Z,1130
2016-11-13T10:23:48.313Z,1165
2016-11-13T10:25:02.107Z,1200
2016-11-13T10:26:14.573Z,1195
2016-11-13T10:27:28.278Z,1260
2016-11-13T10:28:42.017Z,1345
2016-11-13T10:29:54.660Z,1375
2016-11-13T10:31:10.073Z,1315
2016-11-13T10:32:24.127Z,1310
2016-11-13T10:33:38.105Z,1290
2016-11-13T10:34:50.848Z,1310
2016-11-13T10:36:03.525Z,1290
2016-11-13T10:37:17.510Z,1310
2016-11-13T10:38:32.813Z,1380
2016-11-13T10:39:48.198Z,1425
2016-11-13T10:41:03.524Z,1375
2016-11-13T10:42:17.640Z,1340
2016-11-13T10:43:31.880Z,1365
2016-11-13T10:44:47.224Z,1405
2016-11-13T10:46:02.566Z,1450
2016-11-13T10:47:17.839Z,1565
2016-11-13T10:48:33.133Z,1595
2016-11-13T10:49:47.153Z,1585
2016-11-13T10:51:02.467Z,1615
2016-11-13T10:52:17.798Z,1680
2016-11-13T10:53:33.080Z,1810
2016-11-13T10:54:48.350Z,1780
2016-11-13T10:56:03.868Z,1670
2016-11-13T10:57:19.166Z,1750
2016-11-13T10:58:34.487Z,1765
2016-11-13T10:59:49.785Z,1790
2016-11-13T11:01:05.173Z,1845
2016-11-13T11:02:20.499Z,1865
2016-11-13T11:03:35.794Z,1805
2016-11-13T11:04:51.409Z,1795
2016-11-13T11:06:05.372Z,1890
2016-11-13T11:07:19.376Z,2020
2016-11-13T11:08:34.679Z,2050
2016-11-13T11:09:48.642Z,2125
2016-11-13T11:11:04.043Z,2130
2016-11-13T11:12:18.280Z,2145
2016-11-13T11:13:33.532Z,2145
2016-11-13T11:14:48.879Z,2050
2016-11-13T11:16:04.193Z,1995
2016-11-13T11:17:19.527Z,2055
2016-11-13T11:18:34.851Z,2115
2016-11-13T11:19:47.560Z,2115
2016-11-13T11:21:02.899Z,2005
2016-11-13T11:22:16.956Z,2040
2016-11-13T11:23:32.300Z,2055
2016-11-13T11:24:47.588Z,2060
2016-11-13T11:26:02.927Z,2160
2016-11-13T11:27:18.201Z,2200
2016-11-13T11:28:33.663Z,2215
2016-11-13T11:29:48.947Z,2075
2016-11-13T11:31:04.310Z,1965
2016-11-13T11:32:18.298Z,2005
2016-11-13T11:33:33.584Z,2245
2016-11-13T11:34:47.567Z,2230
2016-11-13T11:36:02.890Z,1970
2016-11-13T11:37:16.875Z,1710
2016-11-13T11:38:30.863Z,1555
2016-11-13T11:39:46.153Z,1895
2016-11-13T11:41:01.418Z,2070
2016-11-13T11:42:15.438Z,2110
2016-11-13T11:43:30.724Z,2045
2016-11-13T11:44:46.214Z,2215
2016-11-13T11:46:01.501Z,2175
2016-11-13T11:47:16.861Z,2185
2016-11-13T11:48:32.145Z,2255
2016-11-13T11:49:47.457Z,2205
2016-11-13T11:51:00.194Z,2175
2016-11-13T11:52:15.580Z,2060
2016-11-13T11:53:29.562Z,2070
2016-11-13T11:54:43.851Z,2280
2016-11-13T11:55:57.879Z,2405
2016-11-13T11:57:13.299Z,2320
2016-11-13T11:58:27.412Z,2255
2016-11-13T11:59:42.715Z,2305
2016-11-13T12:00:57.979Z,2285
2016-11-13T12:02:13.424Z,2245
2016-11-13T12:03:27.380Z,2245
2016-11-13T12:04:42.666Z,2220
2016-11-13T12:05:58.249Z,2270
2016-11-13T12:07:13.513Z,2235
2016-11-13T12:08:28.823Z,2155
2016-11-13T12:09:44.164Z,2160
2016-11-13T12:10:59.433Z,2165
2016-11-13T12:12:12.155Z,2145
2016-11-13T12:13:27.477Z,2115
2016-11-13T12:14:41.391Z,2075
2016-11-13T12:15:56.716Z,2005
2016-11-13T12:17:12.173Z,1940
2016-11-13T12:18:27.461Z,1940
2016-11-13T12:19:42.737Z,1880
2016-11-13T12:20:56.459Z,1130
2016-11-13T12:22:08.885Z,755
2016-11-13T12:23:22.632Z,695
2016-11-13T12:24:36.359Z,660
2016-11-13T12:25:50.095Z,645
2016-11-13T12:27:03.819Z,650
2016-11-13T12:28:47.121Z,805
2016-11-13T12:30:02.414Z,1250
2016-11-13T12:31:16.452Z,1430
2016-11-13T12:32:29.174Z,1435
2016-11-13T12:33:43.181Z,1340
2016-11-13T12:34:58.508Z,1220
2016-11-13T12:36:12.601Z,1125
2016-11-13T12:37:27.876Z,1215
2016-11-13T12:38:41.875Z,1235
2016-11-13T12:39:57.185Z,1280
2016-11-13T12:41:12.724Z,1065
2016-11-13T12:42:26.950Z,985
2016-11-13T12:43:40.939Z,870
2016-11-13T12:44:53.362Z,725
2016-11-13T12:46:07.268Z,665
2016-11-13T12:47:21.152Z,625
2016-11-13T12:48:34.890Z,605
2016-11-13T12:49:48.629Z,580
2016-11-13T12:51:02.351Z,555
2016-11-13T12:52:16.088Z,550
2016-11-13T12:53:30.018Z,540
2016-11-13T12:54:43.750Z,520
2016-11-13T12:55:56.193Z,515
2016-11-13T12:57:09.934Z,515
2016-11-13T12:58:23.692Z,520
2016-11-13T12:59:36.124Z,520
2016-11-13T13:00:48.612Z,520
2016-11-13T13:02:01.083Z,515
2016-11-13T13:03:14.794Z,515
2016-11-13T13:04:28.576Z,510
2016-11-13T13:05:41.706Z,515
2016-11-13T13:06:55.603Z,500
2016-11-13T13:08:09.349Z,500
2016-11-13T13:09:23.083Z,490
2016-11-13T13:10:36.824Z,490
2016-11-13T13:11:49.311Z,490
2016-11-13T13:13:03.094Z,490
2016-11-13T13:14:16.836Z,480
2016-11-13T13:15:29.456Z,475
2016-11-13T13:16:43.189Z,470
2016-11-13T13:17:56.936Z,460
2016-11-13T13:19:10.732Z,450
2016-11-13T13:20:24.499Z,440
2016-11-13T13:21:35.698Z,435
2016-11-13T13:22:49.573Z,425
2016-11-13T13:24:03.310Z,420
2016-11-13T13:25:15.762Z,410
2016-11-13T13:26:29.711Z,405
2016-11-13T13:27:43.489Z,400
2016-11-13T13:28:55.917Z,385
2016-11-13T13:30:09.688Z,375
2016-11-13T13:31:22.132Z,370
2016-11-13T13:32:34.589Z,375
2016-11-13T13:33:47.083Z,370
2016-11-13T13:35:00.830Z,365
2016-11-13T13:36:14.653Z,360
2016-11-13T13:37:28.478Z,355
2016-11-13T13:38:42.228Z,350
2016-11-13T13:39:55.978Z,335
2016-11-13T13:41:09.968Z,325
2016-11-13T13:42:23.734Z,320
2016-11-13T13:43:34.928Z,315
2016-11-13T13:44:48.666Z,305
2016-11-13T13:46:02.411Z,295
2016-11-13T13:47:14.872Z,295
2016-11-13T13:48:27.360Z,300
2016-11-13T13:49:41.084Z,295
2016-11-13T13:50:54.854Z,285
2016-11-13T13:52:08.835Z,285
2016-11-13T13:53:22.556Z,285
2016-11-13T13:54:36.262Z,285
2016-11-13T13:55:47.417Z,285
2016-11-13T13:57:01.128Z,280
2016-11-13T13:58:14.865Z,275
2016-11-13T13:59:28.635Z,275
2016-11-13T14:00:42.357Z,260
2016-11-13T14:01:56.297Z,255
2016-11-13T14:03:10.002Z,250
2016-11-13T14:04:23.747Z,245
2016-11-13T14:05:37.455Z,245
2016-11-13T14:06:51.200Z,235
2016-11-13T14:08:04.915Z,230
2016-11-13T14:09:18.671Z,220
2016-11-13T14:10:31.171Z,215
2016-11-13T14:11:42.326Z,210
2016-11-13T14:12:54.763Z,205
2016-11-13T14:14:39.332Z,205
2016-11-13T14:15:51.755Z,210
2016-11-13T14:17:05.464Z,210
2016-11-13T14:18:17.896Z,210
2016-11-13T14:19:30.340Z,210
2016-11-13T14:20:44.072Z,210
2016-11-13T14:21:55.388Z,205
2016-11-13T14:23:09.121Z,200
2016-11-13T14:24:22.836Z,200
2016-11-13T14:25:36.601Z,195
2016-11-13T14:26:50.421Z,195
2016-11-13T14:28:04.170Z,195
2016-11-13T14:29:16.610Z,190
2016-11-13T14:30:27.751Z,185
2016-11-13T14:31:41.475Z,180
2016-11-13T14:32:53.948Z,175
2016-11-13T14:34:07.657Z,175
2016-11-13T14:35:20.103Z,170
2016-11-13T14:36:33.821Z,165
2016-11-13T14:37:47.530Z,160
2016-11-13T14:39:01.283Z,155
2016-11-13T14:40:13.721Z,150
2016-11-13T14:41:27.426Z,150
2016-11-13T14:42:39.913Z,145
2016-11-13T14:43:53.650Z,140
2016-11-13T14:45:07.409Z,140
2016-11-13T14:46:21.158Z,135
2016-11-13T14:47:34.890Z,130
2016-11-13T14:48:48.639Z,125
2016-11-13T14:50:01.143Z,120
2016-11-13T14:51:12.281Z,120
2016-11-13T14:52:26.073Z,115
2016-11-13T14:53:39.830Z,110
2016-11-13T14:54:52.326Z,105
2016-11-13T14:56:03.512Z,100
2016-11-13T14:57:17.475Z,95
2016-11-13T14:58:31.245Z,95
2016-11-13T14:59:43.683Z,90
2016-11-13T15:00:57.401Z,85
2016-11-13T15:02:09.842Z,80
2016-11-13T15:03:23.836Z,75
2016-11-13T15:04:36.284Z,70
2016-11-13T15:05:48.791Z,70
2016-11-13T15:07:02.490Z,65
2016-11-13T15:08:16.208Z,60
2016-11-13T15:09:27.371Z,55
2016-11-13T15:10:41.076Z,50
2016-11-13T15:11:54.792Z,50
2016-11-13T15:13:07.371Z,45
2016-11-13T15:14:21.087Z,40
2016-11-13T15:15:34.833Z,40
2016-11-13T15:16:48.552Z,35
2016-11-13T15:18:02.340Z,30
2016-11-13T15:19:14.793Z,30
2016-11-13T15:20:25.940Z,25
2016-11-13T15:21:39.671Z,25
2016-11-13T15:22:53.411Z,20
2016-11-13T15:24:07.154Z,20
2016-11-13T15:25:19.586Z,15
2016-11-13T15:26:33.389Z,15
2016-11-13T15:27:47.418Z,15
2016-11-13T15:29:32.042Z,10
2016-11-13T15:30:45.771Z,10
2016-11-13T15:31:59.501Z,10
2016-11-13T15:33:13.235Z,5
2016-11-13T15:34:27.299Z,5
2016-11-13T15:35:41.051Z,5
2016-11-13T15:36:53.513Z,5
2016-11-13T15:38:07.377Z,5
2016-11-13T15:39:21.159Z,0
2016-11-13T15:40:33.576Z,0
2016-11-13T15:41:47.384Z,0
2016-11-13T15:43:01.143Z,0
2016-11-13T15:44:14.871Z,0
2016-11-13T15:45:27.313Z,0
2016-11-13T15:46:39.773Z,0
2016-11-13T15:47:53.514Z,0
2016-11-13T15:49:06.013Z,0
2016-11-13T15:50:18.512Z,0
2016-11-13T15:51:32.304Z,0
2016-11-13T15:52:46.172Z,0
2016-11-13T15:53:59.907Z,0
2016-11-13T15:55:12.359Z,0
2016-11-13T15:56:24.908Z,0
2016-11-13T15:57:38.684Z,0
2016-11-13T15:58:52.589Z,0
2016-11-13T16:00:03.767Z,0
2016-11-13T16:01:17.576Z,0
2016-11-13T16:02:31.355Z,0
2016-11-13T16:03:43.850Z,0
2016-11-13T16:05:03.190Z,0
2016-11-13T16:06:16.999Z,0
2016-11-13T16:07:30.781Z,0
2016-11-13T16:08:44.617Z,0
2016-11-13T16:09:58.420Z,0
2016-11-13T16:11:12.227Z,0
2016-11-13T16:12:24.761Z,0
2016-11-13T16:13:38.524Z,0
2016-11-13T16:14:51.026Z,0
2016-11-13T16:16:03.703Z,0
2016-11-13T16:17:16.202Z,0
2016-11-13T16:18:27.424Z,0
2016-11-13T16:19:39.947Z,0
2016-11-13T16:20:53.769Z,0
2016-11-13T16:22:07.583Z,0
2016-11-13T16:23:21.493Z,0
2016-11-13T16:24:33.983Z,0
2016-11-13T16:25:47.749Z,0
2016-11-13T16:27:01.541Z,0
2016-11-13T16:28:15.304Z,0
2016-11-13T16:29:29.078Z,0
2016-11-13T16:30:41.654Z,0
2016-11-13T16:31:55.475Z,0
2016-11-13T16:33:09.309Z,0
2016-11-13T16:34:21.822Z,0
2016-11-13T16:35:35.662Z,0
2016-11-13T16:36:49.499Z,0
2016-11-13T16:38:02.000Z,0
2016-11-13T16:39:15.754Z,0
2016-11-13T16:40:28.254Z,0
2016-11-13T16:41:42.092Z,0
2016-11-13T16:42:54.605Z,0
2016-11-13T16:44:08.378Z,0
2016-11-13T16:45:22.198Z,0
2016-11-13T16:46:35.991Z,0
2016-11-13T16:47:48.526Z,0
2016-11-13T16:49:01.008Z,0
2016-11-13T16:50:14.803Z,0
2016-11-13T16:51:28.663Z,0
2016-11-13T16:52:41.281Z,0
2016-11-13T16:53:55.109Z,0
2016-11-13T16:55:09.252Z,0
2016-11-13T16:56:20.764Z,0
2016-11-13T16:57:34.592Z,0
2016-11-13T16:58:47.211Z,0
2016-11-13T17:00:01.023Z,0
2016-11-13T17:01:14.976Z,0
2016-11-13T17:02:28.756Z,0
2016-11-13T17:03:42.565Z,0
2016-11-13T17:04:55.135Z,0
2016-11-13T17:06:08.967Z,0
2016-11-13T17:07:22.874Z,0
2016-11-13T17:08:35.435Z,0
2016-11-13T17:09:46.743Z,0
2016-11-13T17:11:00.565Z,0
2016-11-13T17:12:13.227Z,0
2016-11-13T17:13:27.107Z,0
2016-11-13T17:14:41.098Z,0
2016-11-13T17:15:54.961Z,0
2016-11-13T17:17:08.738Z,0
2016-11-13T17:18:22.642Z,0
2016-11-13T17:19:35.195Z,0
2016-11-13T17:20:49.148Z,0
2016-11-13T17:22:01.697Z,0
2016-11-13T17:23:15.537Z,0
2016-11-13T17:24:29.424Z,0
2016-11-13T17:25:41.932Z,0